sensor_id;sensor_type;location;lat;lon;timestamp;P1;durP1;ratioP1;P2;durP2;ratioP2
44197;SDS011;30157;55.512;37.764;2022-10-17T00:00:21;9.32;;;5.68;;
44197;SDS011;30157;55.512;37.764;2022-10-17T00:02:47;10.73;;;5.35;;
44197;SDS011;30157;55.512;37.764;2022-10-17T00:05:12;10.23;;;5.80;;
44197;SDS011;30157;55.512;37.764;2022-10-17T00:07:38;9.48;;;5.50;;
44197;SDS011;30157;55.512;37.764;2022-10-17T00:10:04;10.05;;;5.65;;
44197;SDS011;30157;55.512;37.764;2022-10-17T00:12:31;8.68;;;5.60;;
44197;SDS011;30157;55.512;37.764;2022-10-17T00:14:57;9.70;;;5.53;;
44197;SDS011;30157;55.512;37.764;2022-10-17T00:17:23;8.95;;;5.40;;
44197;SDS011;30157;55.512;37.764;2022-10-17T00:19:48;8.40;;;5.45;;
44197;SDS011;30157;55.512;37.764;2022-10-17T00:22:14;8.88;;;5.75;;
44197;SDS011;30157;55.512;37.764;2022-10-17T00:24:40;8.68;;;4.88;;
44197;SDS011;30157;55.512;37.764;2022-10-17T00:27:05;8.38;;;5.35;;
44197;SDS011;30157;55.512;37.764;2022-10-17T00:29:31;9.20;;;4.97;;
44197;SDS011;30157;55.512;37.764;2022-10-17T00:31:57;9.25;;;5.20;;
44197;SDS011;30157;55.512;37.764;2022-10-17T00:34:23;7.78;;;5.05;;
44197;SDS011;30157;55.512;37.764;2022-10-17T00:36:50;10.07;;;5.05;;
44197;SDS011;30157;55.512;37.764;2022-10-17T00:39:16;13.32;;;6.63;;
44197;SDS011;30157;55.512;37.764;2022-10-17T00:41:42;10.38;;;5.13;;
44197;SDS011;30157;55.512;37.764;2022-10-17T00:46:57;9.70;;;5.38;;
44197;SDS011;30157;55.512;37.764;2022-10-17T00:49:24;12.18;;;5.25;;
44197;SDS011;30157;55.512;37.764;2022-10-17T00:51:53;11.95;;;5.50;;
44197;SDS011;30157;55.512;37.764;2022-10-17T00:54:22;7.07;;;4.95;;
44197;SDS011;30157;55.512;37.764;2022-10-17T00:56:59;7.90;;;5.25;;
44197;SDS011;30157;55.512;37.764;2022-10-17T00:59:25;7.60;;;4.68;;
44197;SDS011;30157;55.512;37.764;2022-10-17T01:02:04;8.35;;;5.03;;
44197;SDS011;30157;55.512;37.764;2022-10-17T01:04:31;10.98;;;5.10;;
44197;SDS011;30157;55.512;37.764;2022-10-17T01:06:57;8.45;;;4.60;;
44197;SDS011;30157;55.512;37.764;2022-10-17T01:09:23;8.10;;;4.90;;
44197;SDS011;30157;55.512;37.764;2022-10-17T01:19:43;9.43;;;4.95;;
44197;SDS011;30157;55.512;37.764;2022-10-17T01:22:25;9.25;;;5.38;;
44197;SDS011;30157;55.512;37.764;2022-10-17T01:33:27;8.65;;;4.82;;
44197;SDS011;30157;55.512;37.764;2022-10-17T01:36:07;8.93;;;4.82;;
44197;SDS011;30157;55.512;37.764;2022-10-17T01:38:40;8.60;;;5.05;;
44197;SDS011;30157;55.512;37.764;2022-10-17T01:43:54;10.35;;;5.40;;
44197;SDS011;30157;55.512;37.764;2022-10-17T01:46:27;9.48;;;4.90;;
44197;SDS011;30157;55.512;37.764;2022-10-17T01:48:59;8.82;;;5.13;;
44197;SDS011;30157;55.512;37.764;2022-10-17T01:51:29;8.90;;;5.10;;
44197;SDS011;30157;55.512;37.764;2022-10-17T01:54:03;7.63;;;4.78;;
44197;SDS011;30157;55.512;37.764;2022-10-17T01:56:33;8.20;;;4.70;;
44197;SDS011;30157;55.512;37.764;2022-10-17T01:59:03;7.60;;;4.75;;
44197;SDS011;30157;55.512;37.764;2022-10-17T02:01:33;9.25;;;5.45;;
44197;SDS011;30157;55.512;37.764;2022-10-17T02:04:03;6.93;;;4.57;;
44197;SDS011;30157;55.512;37.764;2022-10-17T02:06:35;8.65;;;5.28;;
44197;SDS011;30157;55.512;37.764;2022-10-17T02:09:18;7.22;;;4.70;;
44197;SDS011;30157;55.512;37.764;2022-10-17T02:12:33;8.35;;;5.03;;
44197;SDS011;30157;55.512;37.764;2022-10-17T02:15:03;11.43;;;5.25;;
44197;SDS011;30157;55.512;37.764;2022-10-17T02:23:12;8.48;;;4.80;;
44197;SDS011;30157;55.512;37.764;2022-10-17T02:25:59;7.93;;;4.90;;
44197;SDS011;30157;55.512;37.764;2022-10-17T02:31:57;7.53;;;4.97;;
44197;SDS011;30157;55.512;37.764;2022-10-17T02:34:28;8.30;;;5.40;;
44197;SDS011;30157;55.512;37.764;2022-10-17T02:36:59;7.25;;;4.80;;
44197;SDS011;30157;55.512;37.764;2022-10-17T02:39:29;9.38;;;5.20;;
44197;SDS011;30157;55.512;37.764;2022-10-17T02:41:57;7.43;;;4.60;;
44197;SDS011;30157;55.512;37.764;2022-10-17T02:44:27;8.68;;;5.00;;
44197;SDS011;30157;55.512;37.764;2022-10-17T02:46:54;10.63;;;5.28;;
44197;SDS011;30157;55.512;37.764;2022-10-17T02:49:29;8.02;;;4.93;;
44197;SDS011;30157;55.512;37.764;2022-10-17T02:57:04;11.95;;;4.93;;
44197;SDS011;30157;55.512;37.764;2022-10-17T02:59:37;8.77;;;5.43;;
44197;SDS011;30157;55.512;37.764;2022-10-17T03:02:05;8.13;;;5.05;;
44197;SDS011;30157;55.512;37.764;2022-10-17T03:04:32;9.27;;;5.43;;
44197;SDS011;30157;55.512;37.764;2022-10-17T03:06:58;8.40;;;5.05;;
44197;SDS011;30157;55.512;37.764;2022-10-17T03:09:24;6.93;;;5.07;;
44197;SDS011;30157;55.512;37.764;2022-10-17T03:11:50;8.98;;;5.60;;
44197;SDS011;30157;55.512;37.764;2022-10-17T03:14:17;8.07;;;5.28;;
44197;SDS011;30157;55.512;37.764;2022-10-17T03:16:42;8.00;;;5.30;;
44197;SDS011;30157;55.512;37.764;2022-10-17T03:19:08;11.73;;;5.55;;
44197;SDS011;30157;55.512;37.764;2022-10-17T03:21:35;9.63;;;5.32;;
44197;SDS011;30157;55.512;37.764;2022-10-17T03:24:02;8.45;;;6.03;;
44197;SDS011;30157;55.512;37.764;2022-10-17T03:26:28;11.13;;;6.03;;
44197;SDS011;30157;55.512;37.764;2022-10-17T03:28:55;8.77;;;4.93;;
44197;SDS011;30157;55.512;37.764;2022-10-17T03:31:22;11.10;;;5.75;;
44197;SDS011;30157;55.512;37.764;2022-10-17T03:33:49;10.15;;;5.60;;
44197;SDS011;30157;55.512;37.764;2022-10-17T03:36:16;9.07;;;5.60;;
44197;SDS011;30157;55.512;37.764;2022-10-17T03:38:44;9.55;;;6.00;;
44197;SDS011;30157;55.512;37.764;2022-10-17T03:41:11;7.85;;;5.07;;
44197;SDS011;30157;55.512;37.764;2022-10-17T03:43:38;11.07;;;5.65;;
44197;SDS011;30157;55.512;37.764;2022-10-17T03:46:04;10.77;;;5.80;;
44197;SDS011;30157;55.512;37.764;2022-10-17T03:48:32;10.48;;;5.55;;
44197;SDS011;30157;55.512;37.764;2022-10-17T03:51:02;7.68;;;5.55;;
44197;SDS011;30157;55.512;37.764;2022-10-17T03:53:33;9.70;;;5.70;;
44197;SDS011;30157;55.512;37.764;2022-10-17T03:56:09;7.80;;;5.30;;
44197;SDS011;30157;55.512;37.764;2022-10-17T03:58:54;10.73;;;6.32;;
44197;SDS011;30157;55.512;37.764;2022-10-17T04:01:21;8.60;;;5.50;;
44197;SDS011;30157;55.512;37.764;2022-10-17T04:03:51;9.38;;;6.00;;
44197;SDS011;30157;55.512;37.764;2022-10-17T04:06:19;8.13;;;5.15;;
44197;SDS011;30157;55.512;37.764;2022-10-17T04:08:45;9.70;;;5.00;;
44197;SDS011;30157;55.512;37.764;2022-10-17T04:11:17;8.93;;;5.38;;
44197;SDS011;30157;55.512;37.764;2022-10-17T04:13:46;9.60;;;5.40;;
44197;SDS011;30157;55.512;37.764;2022-10-17T04:16:16;8.20;;;5.10;;
44197;SDS011;30157;55.512;37.764;2022-10-17T04:21:25;11.00;;;5.43;;
44197;SDS011;30157;55.512;37.764;2022-10-17T04:23:55;11.68;;;5.43;;
44197;SDS011;30157;55.512;37.764;2022-10-17T04:26:48;10.13;;;5.50;;
44197;SDS011;30157;55.512;37.764;2022-10-17T04:29:15;10.25;;;5.63;;
44197;SDS011;30157;55.512;37.764;2022-10-17T04:31:43;7.70;;;4.90;;
44197;SDS011;30157;55.512;37.764;2022-10-17T04:34:31;13.20;;;5.93;;
44197;SDS011;30157;55.512;37.764;2022-10-17T04:36:57;7.40;;;5.30;;
44197;SDS011;30157;55.512;37.764;2022-10-17T04:39:23;7.57;;;5.07;;
44197;SDS011;30157;55.512;37.764;2022-10-17T04:41:49;11.40;;;6.32;;
44197;SDS011;30157;55.512;37.764;2022-10-17T04:44:14;8.48;;;4.95;;
44197;SDS011;30157;55.512;37.764;2022-10-17T04:46:46;14.60;;;6.32;;
44197;SDS011;30157;55.512;37.764;2022-10-17T04:49:12;11.25;;;5.40;;
44197;SDS011;30157;55.512;37.764;2022-10-17T04:51:41;8.20;;;5.18;;
44197;SDS011;30157;55.512;37.764;2022-10-17T04:54:29;10.43;;;6.03;;
44197;SDS011;30157;55.512;37.764;2022-10-17T04:57:02;9.27;;;5.38;;
44197;SDS011;30157;55.512;37.764;2022-10-17T04:59:28;9.30;;;5.18;;
44197;SDS011;30157;55.512;37.764;2022-10-17T05:02:09;12.18;;;5.60;;
44197;SDS011;30157;55.512;37.764;2022-10-17T05:04:35;9.75;;;5.70;;
44197;SDS011;30157;55.512;37.764;2022-10-17T05:07:01;11.85;;;5.57;;
44197;SDS011;30157;55.512;37.764;2022-10-17T05:09:35;9.73;;;5.40;;
44197;SDS011;30157;55.512;37.764;2022-10-17T05:12:01;10.40;;;5.40;;
44197;SDS011;30157;55.512;37.764;2022-10-17T05:14:28;7.68;;;5.13;;
44197;SDS011;30157;55.512;37.764;2022-10-17T05:16:53;7.50;;;4.90;;
44197;SDS011;30157;55.512;37.764;2022-10-17T05:19:19;9.77;;;5.57;;
44197;SDS011;30157;55.512;37.764;2022-10-17T05:21:48;9.23;;;5.32;;
44197;SDS011;30157;55.512;37.764;2022-10-17T05:24:13;7.43;;;4.38;;
44197;SDS011;30157;55.512;37.764;2022-10-17T05:26:39;7.75;;;5.45;;
44197;SDS011;30157;55.512;37.764;2022-10-17T05:29:05;8.63;;;5.35;;
44197;SDS011;30157;55.512;37.764;2022-10-17T05:31:39;10.80;;;6.28;;
44197;SDS011;30157;55.512;37.764;2022-10-17T05:34:06;10.38;;;5.80;;
44197;SDS011;30157;55.512;37.764;2022-10-17T05:36:32;10.05;;;5.47;;
44197;SDS011;30157;55.512;37.764;2022-10-17T05:39:01;10.13;;;4.95;;
44197;SDS011;30157;55.512;37.764;2022-10-17T05:41:27;12.52;;;5.75;;
44197;SDS011;30157;55.512;37.764;2022-10-17T05:43:53;9.75;;;6.03;;
44197;SDS011;30157;55.512;37.764;2022-10-17T05:46:31;10.73;;;5.75;;
44197;SDS011;30157;55.512;37.764;2022-10-17T05:48:58;7.47;;;5.68;;
44197;SDS011;30157;55.512;37.764;2022-10-17T05:51:23;10.35;;;5.78;;
44197;SDS011;30157;55.512;37.764;2022-10-17T05:53:52;10.35;;;5.72;;
44197;SDS011;30157;55.512;37.764;2022-10-17T05:56:22;9.98;;;6.32;;
44197;SDS011;30157;55.512;37.764;2022-10-17T05:58:49;9.15;;;5.72;;
44197;SDS011;30157;55.512;37.764;2022-10-17T06:01:26;11.77;;;5.97;;
44197;SDS011;30157;55.512;37.764;2022-10-17T06:03:52;12.80;;;5.57;;
44197;SDS011;30157;55.512;37.764;2022-10-17T06:06:18;10.43;;;5.47;;
44197;SDS011;30157;55.512;37.764;2022-10-17T06:08:45;10.38;;;5.07;;
44197;SDS011;30157;55.512;37.764;2022-10-17T06:11:14;7.88;;;4.95;;
44197;SDS011;30157;55.512;37.764;2022-10-17T06:13:40;10.20;;;5.90;;
44197;SDS011;30157;55.512;37.764;2022-10-17T06:16:13;10.65;;;5.60;;
44197;SDS011;30157;55.512;37.764;2022-10-17T06:18:38;10.82;;;5.22;;
44197;SDS011;30157;55.512;37.764;2022-10-17T06:21:05;9.57;;;5.15;;
44197;SDS011;30157;55.512;37.764;2022-10-17T06:23:34;10.48;;;5.35;;
44197;SDS011;30157;55.512;37.764;2022-10-17T06:26:12;8.90;;;5.30;;
44197;SDS011;30157;55.512;37.764;2022-10-17T06:28:39;9.98;;;5.40;;
44197;SDS011;30157;55.512;37.764;2022-10-17T06:31:06;16.35;;;5.60;;
44197;SDS011;30157;55.512;37.764;2022-10-17T06:33:34;11.93;;;5.45;;
44197;SDS011;30157;55.512;37.764;2022-10-17T06:36:01;10.77;;;5.63;;
44197;SDS011;30157;55.512;37.764;2022-10-17T06:38:29;10.40;;;5.55;;
44197;SDS011;30157;55.512;37.764;2022-10-17T06:41:07;14.18;;;5.85;;
44197;SDS011;30157;55.512;37.764;2022-10-17T06:43:34;7.65;;;5.03;;
44197;SDS011;30157;55.512;37.764;2022-10-17T06:46:31;10.75;;;5.72;;
44197;SDS011;30157;55.512;37.764;2022-10-17T06:49:04;9.48;;;5.68;;
44197;SDS011;30157;55.512;37.764;2022-10-17T06:51:43;10.32;;;5.13;;
44197;SDS011;30157;55.512;37.764;2022-10-17T06:54:11;9.23;;;5.53;;
44197;SDS011;30157;55.512;37.764;2022-10-17T06:56:55;10.00;;;5.50;;
44197;SDS011;30157;55.512;37.764;2022-10-17T06:59:49;10.45;;;5.68;;
44197;SDS011;30157;55.512;37.764;2022-10-17T07:02:19;11.48;;;5.80;;
44197;SDS011;30157;55.512;37.764;2022-10-17T07:04:49;9.68;;;5.85;;
44197;SDS011;30157;55.512;37.764;2022-10-17T07:07:15;10.30;;;5.80;;
44197;SDS011;30157;55.512;37.764;2022-10-17T07:09:40;10.90;;;5.45;;
44197;SDS011;30157;55.512;37.764;2022-10-17T07:12:07;8.57;;;5.15;;
44197;SDS011;30157;55.512;37.764;2022-10-17T07:14:33;10.18;;;5.30;;
44197;SDS011;30157;55.512;37.764;2022-10-17T07:17:00;10.98;;;5.97;;
44197;SDS011;30157;55.512;37.764;2022-10-17T07:19:28;15.02;;;6.05;;
44197;SDS011;30157;55.512;37.764;2022-10-17T07:21:54;16.50;;;6.03;;
44197;SDS011;30157;55.512;37.764;2022-10-17T07:24:20;14.23;;;5.97;;
44197;SDS011;30157;55.512;37.764;2022-10-17T07:26:52;16.25;;;5.90;;
44197;SDS011;30157;55.512;37.764;2022-10-17T07:29:20;11.10;;;5.70;;
44197;SDS011;30157;55.512;37.764;2022-10-17T07:32:06;10.68;;;5.13;;
44197;SDS011;30157;55.512;37.764;2022-10-17T07:34:33;9.18;;;5.30;;
44197;SDS011;30157;55.512;37.764;2022-10-17T07:37:00;12.95;;;5.38;;
44197;SDS011;30157;55.512;37.764;2022-10-17T07:39:26;13.02;;;5.40;;
44197;SDS011;30157;55.512;37.764;2022-10-17T07:41:53;11.75;;;5.60;;
44197;SDS011;30157;55.512;37.764;2022-10-17T07:44:20;9.57;;;5.95;;
44197;SDS011;30157;55.512;37.764;2022-10-17T07:46:48;8.45;;;5.20;;
44197;SDS011;30157;55.512;37.764;2022-10-17T07:49:15;12.38;;;5.05;;
44197;SDS011;30157;55.512;37.764;2022-10-17T07:51:40;10.85;;;5.20;;
44197;SDS011;30157;55.512;37.764;2022-10-17T07:54:06;6.90;;;4.93;;
44197;SDS011;30157;55.512;37.764;2022-10-17T07:56:32;8.60;;;5.18;;
44197;SDS011;30157;55.512;37.764;2022-10-17T07:58:58;14.70;;;6.38;;
44197;SDS011;30157;55.512;37.764;2022-10-17T08:01:23;10.50;;;5.10;;
44197;SDS011;30157;55.512;37.764;2022-10-17T08:03:50;7.75;;;4.90;;
44197;SDS011;30157;55.512;37.764;2022-10-17T08:06:16;8.30;;;5.00;;
44197;SDS011;30157;55.512;37.764;2022-10-17T08:08:42;11.65;;;5.30;;
44197;SDS011;30157;55.512;37.764;2022-10-17T08:11:09;9.05;;;5.45;;
44197;SDS011;30157;55.512;37.764;2022-10-17T08:13:37;10.05;;;5.50;;
44197;SDS011;30157;55.512;37.764;2022-10-17T08:16:05;12.52;;;6.18;;
44197;SDS011;30157;55.512;37.764;2022-10-17T08:18:32;9.73;;;5.45;;
44197;SDS011;30157;55.512;37.764;2022-10-17T08:20:59;10.52;;;5.68;;
44197;SDS011;30157;55.512;37.764;2022-10-17T08:23:26;9.88;;;5.25;;
44197;SDS011;30157;55.512;37.764;2022-10-17T08:25:52;11.80;;;7.22;;
44197;SDS011;30157;55.512;37.764;2022-10-17T08:28:17;11.63;;;5.30;;
44197;SDS011;30157;55.512;37.764;2022-10-17T08:30:43;8.40;;;4.93;;
44197;SDS011;30157;55.512;37.764;2022-10-17T08:33:09;7.22;;;5.05;;
44197;SDS011;30157;55.512;37.764;2022-10-17T08:35:35;8.88;;;5.30;;
44197;SDS011;30157;55.512;37.764;2022-10-17T08:38:00;12.45;;;5.60;;
44197;SDS011;30157;55.512;37.764;2022-10-17T08:40:27;10.60;;;5.25;;
44197;SDS011;30157;55.512;37.764;2022-10-17T08:43:01;9.43;;;5.13;;
44197;SDS011;30157;55.512;37.764;2022-10-17T08:45:40;9.35;;;5.10;;
44197;SDS011;30157;55.512;37.764;2022-10-17T08:48:17;9.00;;;5.40;;
44197;SDS011;30157;55.512;37.764;2022-10-17T08:50:48;8.93;;;5.85;;
44197;SDS011;30157;55.512;37.764;2022-10-17T08:53:22;10.30;;;5.80;;
44197;SDS011;30157;55.512;37.764;2022-10-17T08:55:52;10.13;;;5.55;;
44197;SDS011;30157;55.512;37.764;2022-10-17T09:06:34;10.15;;;5.78;;
44197;SDS011;30157;55.512;37.764;2022-10-17T09:14:35;10.77;;;5.57;;
44197;SDS011;30157;55.512;37.764;2022-10-17T09:17:41;10.70;;;6.03;;
44197;SDS011;30157;55.512;37.764;2022-10-17T09:20:17;10.30;;;6.05;;
44197;SDS011;30157;55.512;37.764;2022-10-17T09:22:49;11.70;;;6.13;;
44197;SDS011;30157;55.512;37.764;2022-10-17T09:25:21;15.00;;;7.07;;
44197;SDS011;30157;55.512;37.764;2022-10-17T09:27:48;12.85;;;6.82;;
44197;SDS011;30157;55.512;37.764;2022-10-17T09:33:17;11.73;;;8.10;;
44197;SDS011;30157;55.512;37.764;2022-10-17T09:35:45;17.02;;;9.63;;
44197;SDS011;30157;55.512;37.764;2022-10-17T09:38:16;12.98;;;8.68;;
44197;SDS011;30157;55.512;37.764;2022-10-17T09:40:45;14.02;;;8.93;;
44197;SDS011;30157;55.512;37.764;2022-10-17T09:43:19;13.85;;;9.00;;
44197;SDS011;30157;55.512;37.764;2022-10-17T09:45:50;13.35;;;8.88;;
44197;SDS011;30157;55.512;37.764;2022-10-17T09:48:30;17.77;;;10.27;;
44197;SDS011;30157;55.512;37.764;2022-10-17T09:51:02;19.10;;;10.38;;
44197;SDS011;30157;55.512;37.764;2022-10-17T09:53:32;17.33;;;10.80;;
44197;SDS011;30157;55.512;37.764;2022-10-17T09:56:03;19.10;;;12.45;;
44197;SDS011;30157;55.512;37.764;2022-10-17T09:58:42;19.48;;;11.30;;
44197;SDS011;30157;55.512;37.764;2022-10-17T10:01:17;17.50;;;10.82;;
44197;SDS011;30157;55.512;37.764;2022-10-17T10:04:06;17.65;;;9.98;;
44197;SDS011;30157;55.512;37.764;2022-10-17T10:06:39;17.30;;;10.75;;
44197;SDS011;30157;55.512;37.764;2022-10-17T10:09:24;20.58;;;11.00;;
44197;SDS011;30157;55.512;37.764;2022-10-17T10:11:54;15.80;;;9.32;;
44197;SDS011;30157;55.512;37.764;2022-10-17T10:16:51;15.20;;;10.18;;
44197;SDS011;30157;55.512;37.764;2022-10-17T10:19:25;15.02;;;9.57;;
44197;SDS011;30157;55.512;37.764;2022-10-17T10:21:59;20.85;;;10.82;;
44197;SDS011;30157;55.512;37.764;2022-10-17T10:24:26;16.15;;;9.48;;
44197;SDS011;30157;55.512;37.764;2022-10-17T10:27:02;15.98;;;9.40;;
44197;SDS011;30157;55.512;37.764;2022-10-17T10:29:50;19.05;;;10.65;;
44197;SDS011;30157;55.512;37.764;2022-10-17T10:32:20;16.35;;;9.98;;
44197;SDS011;30157;55.512;37.764;2022-10-17T10:34:52;17.17;;;9.55;;
44197;SDS011;30157;55.512;37.764;2022-10-17T10:37:23;15.95;;;9.88;;
44197;SDS011;30157;55.512;37.764;2022-10-17T10:39:54;19.25;;;10.52;;
44197;SDS011;30157;55.512;37.764;2022-10-17T10:42:28;18.77;;;9.43;;
44197;SDS011;30157;55.512;37.764;2022-10-17T10:44:55;16.85;;;9.98;;
44197;SDS011;30157;55.512;37.764;2022-10-17T10:47:26;15.73;;;8.85;;
44197;SDS011;30157;55.512;37.764;2022-10-17T10:50:07;13.70;;;9.43;;
44197;SDS011;30157;55.512;37.764;2022-10-17T10:52:46;15.40;;;9.52;;
44197;SDS011;30157;55.512;37.764;2022-10-17T10:57:46;14.20;;;8.57;;
44197;SDS011;30157;55.512;37.764;2022-10-17T11:00:19;12.10;;;8.43;;
44197;SDS011;30157;55.512;37.764;2022-10-17T11:05:54;14.45;;;9.27;;
44197;SDS011;30157;55.512;37.764;2022-10-17T11:09:09;16.00;;;8.50;;
44197;SDS011;30157;55.512;37.764;2022-10-17T11:19:27;16.95;;;10.57;;
44197;SDS011;30157;55.512;37.764;2022-10-17T11:22:04;13.80;;;8.38;;
44197;SDS011;30157;55.512;37.764;2022-10-17T11:24:34;13.80;;;8.93;;
44197;SDS011;30157;55.512;37.764;2022-10-17T11:27:05;17.77;;;9.85;;
44197;SDS011;30157;55.512;37.764;2022-10-17T11:29:33;18.17;;;10.48;;
44197;SDS011;30157;55.512;37.764;2022-10-17T11:37:48;18.38;;;10.35;;
44197;SDS011;30157;55.512;37.764;2022-10-17T11:40:33;16.38;;;10.10;;
44197;SDS011;30157;55.512;37.764;2022-10-17T11:45:34;15.88;;;9.82;;
44197;SDS011;30157;55.512;37.764;2022-10-17T11:48:09;15.93;;;10.07;;
44197;SDS011;30157;55.512;37.764;2022-10-17T11:50:42;15.55;;;10.10;;
44197;SDS011;30157;55.512;37.764;2022-10-17T11:53:15;19.13;;;10.23;;
44197;SDS011;30157;55.512;37.764;2022-10-17T11:55:45;17.60;;;10.07;;
44197;SDS011;30157;55.512;37.764;2022-10-17T12:01:08;19.60;;;10.52;;
44197;SDS011;30157;55.512;37.764;2022-10-17T12:03:58;19.65;;;10.88;;
44197;SDS011;30157;55.512;37.764;2022-10-17T12:09:58;16.23;;;10.05;;
44197;SDS011;30157;55.512;37.764;2022-10-17T12:12:43;18.42;;;11.07;;
44197;SDS011;30157;55.512;37.764;2022-10-17T12:17:59;24.60;;;11.80;;
44197;SDS011;30157;55.512;37.764;2022-10-17T12:20:28;15.23;;;10.07;;
44197;SDS011;30157;55.512;37.764;2022-10-17T12:25:31;19.52;;;11.25;;
44197;SDS011;30157;55.512;37.764;2022-10-17T12:30:31;17.23;;;10.77;;
44197;SDS011;30157;55.512;37.764;2022-10-17T12:33:05;22.55;;;12.57;;
44197;SDS011;30157;55.512;37.764;2022-10-17T12:44:33;20.73;;;12.20;;
44197;SDS011;30157;55.512;37.764;2022-10-17T12:49:44;22.20;;;11.50;;
44197;SDS011;30157;55.512;37.764;2022-10-17T12:52:21;22.05;;;12.30;;
44197;SDS011;30157;55.512;37.764;2022-10-17T12:57:52;23.60;;;12.32;;
44197;SDS011;30157;55.512;37.764;2022-10-17T13:00:41;21.10;;;12.75;;
44197;SDS011;30157;55.512;37.764;2022-10-17T13:03:18;20.38;;;11.57;;
44197;SDS011;30157;55.512;37.764;2022-10-17T13:05:52;18.27;;;11.98;;
44197;SDS011;30157;55.512;37.764;2022-10-17T13:08:28;21.33;;;12.65;;
44197;SDS011;30157;55.512;37.764;2022-10-17T13:11:08;21.77;;;11.77;;
44197;SDS011;30157;55.512;37.764;2022-10-17T13:13:48;20.08;;;11.60;;
44197;SDS011;30157;55.512;37.764;2022-10-17T13:16:31;23.45;;;12.77;;
44197;SDS011;30157;55.512;37.764;2022-10-17T13:19:00;22.88;;;12.38;;
44197;SDS011;30157;55.512;37.764;2022-10-17T13:21:29;24.73;;;13.05;;
44197;SDS011;30157;55.512;37.764;2022-10-17T13:23:55;28.33;;;13.10;;
44197;SDS011;30157;55.512;37.764;2022-10-17T13:26:25;26.00;;;13.65;;
44197;SDS011;30157;55.512;37.764;2022-10-17T13:29:11;25.55;;;13.23;;
44197;SDS011;30157;55.512;37.764;2022-10-17T13:31:39;25.63;;;13.40;;
44197;SDS011;30157;55.512;37.764;2022-10-17T13:34:17;25.42;;;13.85;;
44197;SDS011;30157;55.512;37.764;2022-10-17T13:36:46;24.45;;;13.00;;
44197;SDS011;30157;55.512;37.764;2022-10-17T13:39:16;22.90;;;13.23;;
44197;SDS011;30157;55.512;37.764;2022-10-17T13:41:44;22.73;;;13.52;;
44197;SDS011;30157;55.512;37.764;2022-10-17T13:44:12;20.80;;;11.73;;
44197;SDS011;30157;55.512;37.764;2022-10-17T13:46:43;19.98;;;11.57;;
44197;SDS011;30157;55.512;37.764;2022-10-17T13:49:10;21.45;;;11.27;;
44197;SDS011;30157;55.512;37.764;2022-10-17T13:51:48;20.27;;;12.30;;
44197;SDS011;30157;55.512;37.764;2022-10-17T13:54:38;24.20;;;12.68;;
44197;SDS011;30157;55.512;37.764;2022-10-17T13:59:48;22.48;;;12.52;;
44197;SDS011;30157;55.512;37.764;2022-10-17T14:02:18;23.77;;;12.80;;
44197;SDS011;30157;55.512;37.764;2022-10-17T14:04:48;26.35;;;13.90;;
44197;SDS011;30157;55.512;37.764;2022-10-17T14:10:46;21.73;;;12.50;;
44197;SDS011;30157;55.512;37.764;2022-10-17T14:13:20;27.73;;;13.52;;
44197;SDS011;30157;55.512;37.764;2022-10-17T14:15:51;21.45;;;12.68;;
44197;SDS011;30157;55.512;37.764;2022-10-17T14:18:40;25.23;;;12.95;;
44197;SDS011;30157;55.512;37.764;2022-10-17T14:23:41;21.92;;;12.48;;
44197;SDS011;30157;55.512;37.764;2022-10-17T14:28:39;24.00;;;13.82;;
44197;SDS011;30157;55.512;37.764;2022-10-17T14:33:34;26.08;;;14.07;;
44197;SDS011;30157;55.512;37.764;2022-10-17T14:36:00;22.80;;;13.35;;
44197;SDS011;30157;55.512;37.764;2022-10-17T14:38:28;32.97;;;17.33;;
44197;SDS011;30157;55.512;37.764;2022-10-17T14:40:58;32.78;;;17.73;;
44197;SDS011;30157;55.512;37.764;2022-10-17T14:43:27;31.98;;;17.77;;
44197;SDS011;30157;55.512;37.764;2022-10-17T14:45:58;38.00;;;22.90;;
44197;SDS011;30157;55.512;37.764;2022-10-17T14:48:25;34.17;;;20.60;;
44197;SDS011;30157;55.512;37.764;2022-10-17T14:51:10;37.58;;;21.52;;
44197;SDS011;30157;55.512;37.764;2022-10-17T14:53:39;30.08;;;17.73;;
44197;SDS011;30157;55.512;37.764;2022-10-17T14:56:22;33.35;;;19.10;;
44197;SDS011;30157;55.512;37.764;2022-10-17T14:58:49;34.78;;;19.55;;
44197;SDS011;30157;55.512;37.764;2022-10-17T15:01:16;34.08;;;19.02;;
44197;SDS011;30157;55.512;37.764;2022-10-17T15:03:45;29.63;;;17.38;;
44197;SDS011;30157;55.512;37.764;2022-10-17T15:06:17;34.38;;;18.45;;
44197;SDS011;30157;55.512;37.764;2022-10-17T15:08:45;31.23;;;17.00;;
44197;SDS011;30157;55.512;37.764;2022-10-17T15:11:11;31.67;;;16.15;;
44197;SDS011;30157;55.512;37.764;2022-10-17T15:13:37;31.83;;;16.67;;
44197;SDS011;30157;55.512;37.764;2022-10-17T15:18:44;28.35;;;16.95;;
44197;SDS011;30157;55.512;37.764;2022-10-17T15:21:13;29.10;;;16.05;;
44197;SDS011;30157;55.512;37.764;2022-10-17T15:23:40;30.23;;;16.75;;
44197;SDS011;30157;55.512;37.764;2022-10-17T15:26:27;28.02;;;16.63;;
44197;SDS011;30157;55.512;37.764;2022-10-17T15:28:56;25.15;;;15.23;;
44197;SDS011;30157;55.512;37.764;2022-10-17T15:31:22;27.58;;;15.73;;
44197;SDS011;30157;55.512;37.764;2022-10-17T15:33:50;27.92;;;16.50;;
44197;SDS011;30157;55.512;37.764;2022-10-17T15:36:23;30.88;;;16.80;;
44197;SDS011;30157;55.512;37.764;2022-10-17T15:38:52;32.00;;;15.50;;
44197;SDS011;30157;55.512;37.764;2022-10-17T15:41:20;31.70;;;16.30;;
44197;SDS011;30157;55.512;37.764;2022-10-17T15:43:47;29.63;;;16.05;;
44197;SDS011;30157;55.512;37.764;2022-10-17T15:46:15;29.40;;;16.17;;
44197;SDS011;30157;55.512;37.764;2022-10-17T15:48:47;29.65;;;16.52;;
44197;SDS011;30157;55.512;37.764;2022-10-17T15:51:13;26.67;;;15.35;;
44197;SDS011;30157;55.512;37.764;2022-10-17T15:53:41;28.80;;;15.40;;
44197;SDS011;30157;55.512;37.764;2022-10-17T15:56:07;28.52;;;15.10;;
44197;SDS011;30157;55.512;37.764;2022-10-17T15:58:44;26.85;;;15.88;;
44197;SDS011;30157;55.512;37.764;2022-10-17T16:01:15;29.73;;;16.05;;
44197;SDS011;30157;55.512;37.764;2022-10-17T16:03:48;27.00;;;14.95;;
44197;SDS011;30157;55.512;37.764;2022-10-17T16:06:15;26.70;;;16.17;;
44197;SDS011;30157;55.512;37.764;2022-10-17T16:08:43;26.80;;;15.55;;
44197;SDS011;30157;55.512;37.764;2022-10-17T16:11:12;30.50;;;16.67;;
44197;SDS011;30157;55.512;37.764;2022-10-17T16:13:48;31.98;;;16.48;;
44197;SDS011;30157;55.512;37.764;2022-10-17T16:16:16;30.25;;;17.00;;
44197;SDS011;30157;55.512;37.764;2022-10-17T16:18:43;34.20;;;18.05;;
44197;SDS011;30157;55.512;37.764;2022-10-17T16:21:10;25.63;;;14.77;;
44197;SDS011;30157;55.512;37.764;2022-10-17T16:23:38;25.58;;;14.95;;
44197;SDS011;30157;55.512;37.764;2022-10-17T16:26:04;28.48;;;15.88;;
44197;SDS011;30157;55.512;37.764;2022-10-17T16:28:47;26.75;;;15.48;;
44197;SDS011;30157;55.512;37.764;2022-10-17T16:31:26;25.15;;;14.00;;
44197;SDS011;30157;55.512;37.764;2022-10-17T16:33:56;28.75;;;17.15;;
44197;SDS011;30157;55.512;37.764;2022-10-17T16:36:23;27.05;;;14.85;;
44197;SDS011;30157;55.512;37.764;2022-10-17T16:38:50;29.27;;;15.32;;
44197;SDS011;30157;55.512;37.764;2022-10-17T16:43:50;24.50;;;14.27;;
44197;SDS011;30157;55.512;37.764;2022-10-17T16:46:18;26.55;;;14.65;;
44197;SDS011;30157;55.512;37.764;2022-10-17T16:48:47;25.42;;;13.90;;